sensor_id;sensor_type;location;lat;lon;timestamp;temperature;humidity
44763;DHT22;30483;49.576;6.036;2024-01-30T04:02:36;15.20;99.90
44763;DHT22;30483;49.576;6.036;2024-01-30T04:05:01;15.20;99.90
44763;DHT22;30483;49.576;6.036;2024-01-30T04:07:27;15.20;99.90
44763;DHT22;30483;49.576;6.036;2024-01-30T04:09:53;15.20;99.90
44763;DHT22;30483;49.576;6.036;2024-01-30T04:12:18;15.20;99.90
44763;DHT22;30483;49.576;6.036;2024-01-30T04:14:44;15.20;99.90
44763;DHT22;30483;49.576;6.036;2024-01-30T04:17:09;15.20;99.90
44763;DHT22;30483;49.576;6.036;2024-01-30T04:19:37;15.20;99.90
44763;DHT22;30483;49.576;6.036;2024-01-30T04:22:04;15.20;99.90
44763;DHT22;30483;49.576;6.036;2024-01-30T04:24:29;15.20;99.90
44763;DHT22;30483;49.576;6.036;2024-01-30T04:26:55;15.10;99.90
44763;DHT22;30483;49.576;6.036;2024-01-30T04:29:20;15.20;99.90
44763;DHT22;30483;49.576;6.036;2024-01-30T04:31:47;15.20;99.90
44763;DHT22;30483;49.576;6.036;2024-01-30T04:34:13;15.10;99.90
44763;DHT22;30483;49.576;6.036;2024-01-30T04:36:39;15.20;99.90
44763;DHT22;30483;49.576;6.036;2024-01-30T04:39:04;15.20;99.90
44763;DHT22;30483;49.576;6.036;2024-01-30T04:41:30;15.20;99.90
44763;DHT22;30483;49.576;6.036;2024-01-30T04:43:57;15.10;99.90
44763;DHT22;30483;49.576;6.036;2024-01-30T04:46:23;15.20;99.90
44763;DHT22;30483;49.576;6.036;2024-01-30T04:48:48;15.10;99.90
44763;DHT22;30483;49.576;6.036;2024-01-30T04:51:14;15.10;99.90
44763;DHT22;30483;49.576;6.036;2024-01-30T04:53:39;15.20;99.90
44763;DHT22;30483;49.576;6.036;2024-01-30T04:56:05;15.10;99.90
44763;DHT22;30483;49.576;6.036;2024-01-30T04:58:31;15.20;99.90
44763;DHT22;30483;49.576;6.036;2024-01-30T05:00:57;15.10;99.90
44763;DHT22;30483;49.576;6.036;2024-01-30T05:03:22;15.20;99.90
44763;DHT22;30483;49.576;6.036;2024-01-30T05:05:49;15.10;99.90
44763;DHT22;30483;49.576;6.036;2024-01-30T05:08:15;15.20;99.90
44763;DHT22;30483;49.576;6.036;2024-01-30T05:10:40;15.20;99.90
44763;DHT22;30483;49.576;6.036;2024-01-30T05:13:06;15.20;99.90
44763;DHT22;30483;49.576;6.036;2024-01-30T05:15:32;15.20;99.90
44763;DHT22;30483;49.576;6.036;2024-01-30T05:17:57;15.20;99.90
44763;DHT22;30483;49.576;6.036;2024-01-30T05:20:23;15.20;99.90
44763;DHT22;30483;49.576;6.036;2024-01-30T05:22:48;15.20;99.90
44763;DHT22;30483;49.576;6.036;2024-01-30T05:25:14;15.20;99.90
44763;DHT22;30483;49.576;6.036;2024-01-30T05:27:40;15.10;99.90
44763;DHT22;30483;49.576;6.036;2024-01-30T05:30:06;15.10;99.90
44763;DHT22;30483;49.576;6.036;2024-01-30T05:32:32;15.20;99.90
44763;DHT22;30483;49.576;6.036;2024-01-30T05:34:58;15.10;99.90
44763;DHT22;30483;49.576;6.036;2024-01-30T05:37:23;15.10;99.90
44763;DHT22;30483;49.576;6.036;2024-01-30T05:39:49;15.20;99.90
44763;DHT22;30483;49.576;6.036;2024-01-30T05:42:15;15.20;99.90
44763;DHT22;30483;49.576;6.036;2024-01-30T05:44:42;15.20;99.90
44763;DHT22;30483;49.576;6.036;2024-01-30T05:47:07;15.20;99.90
44763;DHT22;30483;49.576;6.036;2024-01-30T05:49:33;15.20;99.90
44763;DHT22;30483;49.576;6.036;2024-01-30T05:52:01;15.10;99.90
44763;DHT22;30483;49.576;6.036;2024-01-30T05:54:27;15.20;99.90
44763;DHT22;30483;49.576;6.036;2024-01-30T05:56:52;15.20;99.90
44763;DHT22;30483;49.576;6.036;2024-01-30T05:59:18;15.20;99.90
44763;DHT22;30483;49.576;6.036;2024-01-30T06:01:47;15.20;99.90
44763;DHT22;30483;49.576;6.036;2024-01-30T06:04:13;15.20;99.90
44763;DHT22;30483;49.576;6.036;2024-01-30T06:06:39;15.10;99.90
44763;DHT22;30483;49.576;6.036;2024-01-30T06:09:04;15.00;99.90
44763;DHT22;30483;49.576;6.036;2024-01-30T06:11:30;14.90;99.90
44763;DHT22;30483;49.576;6.036;2024-01-30T06:13:55;14.90;99.90
44763;DHT22;30483;49.576;6.036;2024-01-30T06:16:22;14.90;99.90
44763;DHT22;30483;49.576;6.036;2024-01-30T06:18:48;14.90;99.90
44763;DHT22;30483;49.576;6.036;2024-01-30T06:21:13;14.90;99.90
44763;DHT22;30483;49.576;6.036;2024-01-30T06:23:39;14.90;99.90
44763;DHT22;30483;49.576;6.036;2024-01-30T06:26:06;14.90;99.90
44763;DHT22;30483;49.576;6.036;2024-01-30T06:28:32;14.80;99.90
44763;DHT22;30483;49.576;6.036;2024-01-30T06:30:58;14.40;99.90
44763;DHT22;30483;49.576;6.036;2024-01-30T06:33:23;14.00;99.90
44763;DHT22;30483;49.576;6.036;2024-01-30T06:35:49;13.90;99.90
44763;DHT22;30483;49.576;6.036;2024-01-30T06:38:14;13.90;99.90
44763;DHT22;30483;49.576;6.036;2024-01-30T06:40:41;14.00;99.90
44763;DHT22;30483;49.576;6.036;2024-01-30T06:43:07;14.00;99.90
44763;DHT22;30483;49.576;6.036;2024-01-30T06:45:33;14.10;99.90
44763;DHT22;30483;49.576;6.036;2024-01-30T06:48:00;14.20;99.90
44763;DHT22;30483;49.576;6.036;2024-01-30T06:50:27;14.30;99.90
44763;DHT22;30483;49.576;6.036;2024-01-30T06:52:52;14.30;99.90
44763;DHT22;30483;49.576;6.036;2024-01-30T06:55:18;14.30;99.90
44763;DHT22;30483;49.576;6.036;2024-01-30T06:57:44;14.40;99.90
44763;DHT22;30483;49.576;6.036;2024-01-30T07:00:10;14.40;99.90
44763;DHT22;30483;49.576;6.036;2024-01-30T07:02:35;14.40;99.90
44763;DHT22;30483;49.576;6.036;2024-01-30T07:05:02;14.50;99.90
44763;DHT22;30483;49.576;6.036;2024-01-30T07:07:28;14.50;99.90
44763;DHT22;30483;49.576;6.036;2024-01-30T07:09:54;14.50;99.90
44763;DHT22;30483;49.576;6.036;2024-01-30T07:12:22;14.50;99.90
44763;DHT22;30483;49.576;6.036;2024-01-30T07:14:50;14.50;99.90
44763;DHT22;30483;49.576;6.036;2024-01-30T07:17:16;14.50;99.90
44763;DHT22;30483;49.576;6.036;2024-01-30T07:19:41;14.50;99.90
44763;DHT22;30483;49.576;6.036;2024-01-30T07:22:08;14.50;99.90
44763;DHT22;30483;49.576;6.036;2024-01-30T07:24:33;14.50;99.90
44763;DHT22;30483;49.576;6.036;2024-01-30T07:26:59;14.50;99.90
44763;DHT22;30483;49.576;6.036;2024-01-30T07:29:24;14.50;99.90
44763;DHT22;30483;49.576;6.036;2024-01-30T07:31:50;14.50;99.90
44763;DHT22;30483;49.576;6.036;2024-01-30T07:34:16;14.50;99.90
44763;DHT22;30483;49.576;6.036;2024-01-30T07:36:42;14.50;99.90
44763;DHT22;30483;49.576;6.036;2024-01-30T07:39:07;14.50;99.90
44763;DHT22;30483;49.576;6.036;2024-01-30T07:41:33;14.50;99.90
44763;DHT22;30483;49.576;6.036;2024-01-30T07:43:59;14.50;99.90
44763;DHT22;30483;49.576;6.036;2024-01-30T07:46:24;14.50;99.90
44763;DHT22;30483;49.576;6.036;2024-01-30T07:48:53;14.50;99.90
44763;DHT22;30483;49.576;6.036;2024-01-30T07:51:18;14.50;99.90
44763;DHT22;30483;49.576;6.036;2024-01-30T07:53:44;14.50;99.90
44763;DHT22;30483;49.576;6.036;2024-01-30T07:56:10;14.50;99.90
44763;DHT22;30483;49.576;6.036;2024-01-30T07:58:36;14.50;99.90
44763;DHT22;30483;49.576;6.036;2024-01-30T08:01:02;14.50;99.90
44763;DHT22;30483;49.576;6.036;2024-01-30T08:03:28;14.50;99.90
44763;DHT22;30483;49.576;6.036;2024-01-30T08:05:54;14.50;99.90
44763;DHT22;30483;49.576;6.036;2024-01-30T08:08:19;14.50;99.90
44763;DHT22;30483;49.576;6.036;2024-01-30T08:10:45;14.50;99.90
44763;DHT22;30483;49.576;6.036;2024-01-30T08:13:10;14.50;99.90
44763;DHT22;30483;49.576;6.036;2024-01-30T08:15:36;14.50;99.90
44763;DHT22;30483;49.576;6.036;2024-01-30T08:18:01;14.50;99.90
44763;DHT22;30483;49.576;6.036;2024-01-30T08:20:27;14.50;99.90
44763;DHT22;30483;49.576;6.036;2024-01-30T08:22:52;14.50;99.90
44763;DHT22;30483;49.576;6.036;2024-01-30T08:25:18;14.50;99.90
44763;DHT22;30483;49.576;6.036;2024-01-30T08:27:44;14.50;99.90
44763;DHT22;30483;49.576;6.036;2024-01-30T08:30:10;14.50;99.90
44763;DHT22;30483;49.576;6.036;2024-01-30T08:32:36;14.50;99.90
44763;DHT22;30483;49.576;6.036;2024-01-30T08:35:02;14.50;99.90
44763;DHT22;30483;49.576;6.036;2024-01-30T08:37:30;14.50;99.90
44763;DHT22;30483;49.576;6.036;2024-01-30T08:39:56;14.50;99.90
44763;DHT22;30483;49.576;6.036;2024-01-30T08:42:22;14.50;99.90
44763;DHT22;30483;49.576;6.036;2024-01-30T08:44:48;14.50;99.90
44763;DHT22;30483;49.576;6.036;2024-01-30T08:47:15;14.50;99.90
44763;DHT22;30483;49.576;6.036;2024-01-30T08:49:42;14.50;99.90
44763;DHT22;30483;49.576;6.036;2024-01-30T08:52:10;14.50;99.90
44763;DHT22;30483;49.576;6.036;2024-01-30T08:54:35;14.50;99.90
44763;DHT22;30483;49.576;6.036;2024-01-30T08:57:01;14.50;99.90
44763;DHT22;30483;49.576;6.036;2024-01-30T08:59:27;14.50;99.90
44763;DHT22;30483;49.576;6.036;2024-01-30T09:01:53;14.50;99.90
44763;DHT22;30483;49.576;6.036;2024-01-30T09:04:21;14.50;99.90
44763;DHT22;30483;49.576;6.036;2024-01-30T09:06:47;14.50;99.90
44763;DHT22;30483;49.576;6.036;2024-01-30T09:09:13;14.50;99.90
44763;DHT22;30483;49.576;6.036;2024-01-30T09:11:40;14.50;99.90
44763;DHT22;30483;49.576;6.036;2024-01-30T09:14:05;14.50;99.90
44763;DHT22;30483;49.576;6.036;2024-01-30T09:16:31;14.50;99.90
44763;DHT22;30483;49.576;6.036;2024-01-30T09:18:56;14.50;99.90
44763;DHT22;30483;49.576;6.036;2024-01-30T09:21:22;14.50;99.90
44763;DHT22;30483;49.576;6.036;2024-01-30T09:23:48;14.50;99.90
44763;DHT22;30483;49.576;6.036;2024-01-30T09:26:14;14.50;99.90
44763;DHT22;30483;49.576;6.036;2024-01-30T09:28:39;14.40;99.90
44763;DHT22;30483;49.576;6.036;2024-01-30T09:31:11;14.40;99.90
44763;DHT22;30483;49.576;6.036;2024-01-30T09:33:37;14.40;99.90
44763;DHT22;30483;49.576;6.036;2024-01-30T09:36:04;14.40;99.90
44763;DHT22;30483;49.576;6.036;2024-01-30T09:38:30;14.50;99.90
44763;DHT22;30483;49.576;6.036;2024-01-30T09:40:56;14.50;99.90
44763;DHT22;30483;49.576;6.036;2024-01-30T09:43:23;14.50;99.90
44763;DHT22;30483;49.576;6.036;2024-01-30T09:45:50;14.40;99.90
44763;DHT22;30483;49.576;6.036;2024-01-30T09:48:16;14.50;99.90
44763;DHT22;30483;49.576;6.036;2024-01-30T09:50:41;14.50;99.90
44763;DHT22;30483;49.576;6.036;2024-01-30T09:53:11;14.50;99.90
44763;DHT22;30483;49.576;6.036;2024-01-30T09:55:40;14.50;99.90
44763;DHT22;30483;49.576;6.036;2024-01-30T09:58:08;14.50;99.90
44763;DHT22;30483;49.576;6.036;2024-01-30T10:00:33;14.50;99.90
44763;DHT22;30483;49.576;6.036;2024-01-30T10:02:59;14.50;99.90
44763;DHT22;30483;49.576;6.036;2024-01-30T10:05:27;14.50;99.90
44763;DHT22;30483;49.576;6.036;2024-01-30T10:07:56;14.50;99.90
44763;DHT22;30483;49.576;6.036;2024-01-30T10:10:23;14.50;99.90
44763;DHT22;30483;49.576;6.036;2024-01-30T10:12:49;14.50;99.90
44763;DHT22;30483;49.576;6.036;2024-01-30T10:15:15;14.50;99.90
44763;DHT22;30483;49.576;6.036;2024-01-30T10:17:42;14.50;99.90
44763;DHT22;30483;49.576;6.036;2024-01-30T10:20:08;14.50;99.90
44763;DHT22;30483;49.576;6.036;2024-01-30T10:22:34;14.50;99.90
44763;DHT22;30483;49.576;6.036;2024-01-30T10:25:00;14.50;99.90
44763;DHT22;30483;49.576;6.036;2024-01-30T10:27:26;14.50;99.90
44763;DHT22;30483;49.576;6.036;2024-01-30T10:29:52;14.50;99.90
44763;DHT22;30483;49.576;6.036;2024-01-30T10:32:19;14.50;99.90
44763;DHT22;30483;49.576;6.036;2024-01-30T10:34:45;14.40;99.90
44763;DHT22;30483;49.576;6.036;2024-01-30T10:37:11;14.50;99.90
44763;DHT22;30483;49.576;6.036;2024-01-30T10:39:39;14.50;99.90
44763;DHT22;30483;49.576;6.036;2024-01-30T10:42:05;14.50;99.90
44763;DHT22;30483;49.576;6.036;2024-01-30T10:44:41;14.50;99.90
44763;DHT22;30483;49.576;6.036;2024-01-30T10:47:11;14.40;99.90
44763;DHT22;30483;49.576;6.036;2024-01-30T10:49:40;14.50;99.90
44763;DHT22;30483;49.576;6.036;2024-01-30T10:52:06;14.40;99.90
44763;DHT22;30483;49.576;6.036;2024-01-30T10:54:35;14.40;99.90
44763;DHT22;30483;49.576;6.036;2024-01-30T10:57:02;14.50;99.90
44763;DHT22;30483;49.576;6.036;2024-01-30T10:59:29;14.40;99.90
44763;DHT22;30483;49.576;6.036;2024-01-30T11:01:57;14.40;99.90
44763;DHT22;30483;49.576;6.036;2024-01-30T11:04:23;14.50;99.90
44763;DHT22;30483;49.576;6.036;2024-01-30T11:06:50;14.40;99.90
44763;DHT22;30483;49.576;6.036;2024-01-30T11:09:17;14.50;99.90
44763;DHT22;30483;49.576;6.036;2024-01-30T11:11:59;14.50;99.90
44763;DHT22;30483;49.576;6.036;2024-01-30T11:14:26;14.50;99.90
44763;DHT22;30483;49.576;6.036;2024-01-30T11:16:52;14.50;99.90
44763;DHT22;30483;49.576;6.036;2024-01-30T11:19:25;14.50;99.90
44763;DHT22;30483;49.576;6.036;2024-01-30T11:21:54;14.50;99.90
44763;DHT22;30483;49.576;6.036;2024-01-30T11:24:22;14.60;99.90
44763;DHT22;30483;49.576;6.036;2024-01-30T11:27:00;14.60;99.90
44763;DHT22;30483;49.576;6.036;2024-01-30T11:29:30;14.60;99.90
44763;DHT22;30483;49.576;6.036;2024-01-30T11:31:57;14.60;99.90
44763;DHT22;30483;49.576;6.036;2024-01-30T11:34:23;14.60;99.90
44763;DHT22;30483;49.576;6.036;2024-01-30T11:36:52;14.60;99.90
44763;DHT22;30483;49.576;6.036;2024-01-30T11:39:20;14.60;99.90
44763;DHT22;30483;49.576;6.036;2024-01-30T11:41:51;14.60;99.90
44763;DHT22;30483;49.576;6.036;2024-01-30T11:44:17;14.60;99.90
44763;DHT22;30483;49.576;6.036;2024-01-30T11:46:42;14.70;99.90
44763;DHT22;30483;49.576;6.036;2024-01-30T11:49:08;14.90;99.90
44763;DHT22;30483;49.576;6.036;2024-01-30T11:51:34;15.00;99.90
44763;DHT22;30483;49.576;6.036;2024-01-30T11:54:00;15.10;99.90
44763;DHT22;30483;49.576;6.036;2024-01-30T11:56:25;15.10;99.90
44763;DHT22;30483;49.576;6.036;2024-01-30T11:58:52;15.20;99.90
44763;DHT22;30483;49.576;6.036;2024-01-30T12:01:18;15.30;99.90
44763;DHT22;30483;49.576;6.036;2024-01-30T12:03:50;15.40;99.90
44763;DHT22;30483;49.576;6.036;2024-01-30T12:06:15;15.50;99.90
44763;DHT22;30483;49.576;6.036;2024-01-30T12:08:41;15.60;99.90
44763;DHT22;30483;49.576;6.036;2024-01-30T12:11:07;15.60;99.90
44763;DHT22;30483;49.576;6.036;2024-01-30T12:13:33;15.70;99.90
44763;DHT22;30483;49.576;6.036;2024-01-30T12:15:59;15.80;99.90
44763;DHT22;30483;49.576;6.036;2024-01-30T12:18:26;15.80;99.90
44763;DHT22;30483;49.576;6.036;2024-01-30T12:20:59;15.90;99.90
44763;DHT22;30483;49.576;6.036;2024-01-30T12:23:26;15.90;99.90
44763;DHT22;30483;49.576;6.036;2024-01-30T12:25:52;15.90;99.90
44763;DHT22;30483;49.576;6.036;2024-01-30T12:28:18;15.90;99.90
44763;DHT22;30483;49.576;6.036;2024-01-30T12:30:43;15.90;99.90
44763;DHT22;30483;49.576;6.036;2024-01-30T12:33:09;16.00;99.90
44763;DHT22;30483;49.576;6.036;2024-01-30T12:35:35;16.00;99.90
44763;DHT22;30483;49.576;6.036;2024-01-30T12:38:02;16.00;99.90
44763;DHT22;30483;49.576;6.036;2024-01-30T12:40:28;16.00;99.90
44763;DHT22;30483;49.576;6.036;2024-01-30T12:42:54;16.00;99.90
44763;DHT22;30483;49.576;6.036;2024-01-30T12:45:19;16.00;99.90
44763;DHT22;30483;49.576;6.036;2024-01-30T12:47:48;16.10;99.90
44763;DHT22;30483;49.576;6.036;2024-01-30T12:50:14;16.10;99.90
44763;DHT22;30483;49.576;6.036;2024-01-30T12:52:42;16.10;99.90
44763;DHT22;30483;49.576;6.036;2024-01-30T12:55:08;16.10;99.90
44763;DHT22;30483;49.576;6.036;2024-01-30T12:57:33;16.10;99.90
44763;DHT22;30483;49.576;6.036;2024-01-30T12:59:59;16.10;99.90
44763;DHT22;30483;49.576;6.036;2024-01-30T13:02:25;16.10;99.90
44763;DHT22;30483;49.576;6.036;2024-01-30T13:04:51;16.20;99.90
44763;DHT22;30483;49.576;6.036;2024-01-30T13:07:17;16.20;99.90
44763;DHT22;30483;49.576;6.036;2024-01-30T13:09:43;16.20;99.90
44763;DHT22;30483;49.576;6.036;2024-01-30T13:12:09;16.10;99.90
44763;DHT22;30483;49.576;6.036;2024-01-30T13:14:35;16.10;99.90
44763;DHT22;30483;49.576;6.036;2024-01-30T13:17:00;16.10;99.90
44763;DHT22;30483;49.576;6.036;2024-01-30T13:19:26;16.10;99.90
44763;DHT22;30483;49.576;6.036;2024-01-30T13:21:52;16.10;99.90
44763;DHT22;30483;49.576;6.036;2024-01-30T13:24:18;16.10;99.90
44763;DHT22;30483;49.576;6.036;2024-01-30T13:26:47;16.10;99.90
44763;DHT22;30483;49.576;6.036;2024-01-30T13:29:12;16.10;99.90
44763;DHT22;30483;49.576;6.036;2024-01-30T13:31:38;16.10;99.90
44763;DHT22;30483;49.576;6.036;2024-01-30T13:34:05;16.10;99.90
44763;DHT22;30483;49.576;6.036;2024-01-30T13:36:32;16.10;99.90
44763;DHT22;30483;49.576;6.036;2024-01-30T13:38:57;16.10;99.90
44763;DHT22;30483;49.576;6.036;2024-01-30T13:41:23;16.00;99.90
44763;DHT22;30483;49.576;6.036;2024-01-30T13:43:49;16.10;99.90
44763;DHT22;30483;49.576;6.036;2024-01-30T13:46:14;16.00;99.90
44763;DHT22;30483;49.576;6.036;2024-01-30T13:48:40;16.00;99.90
44763;DHT22;30483;49.576;6.036;2024-01-30T13:51:06;16.00;99.90
44763;DHT22;30483;49.576;6.036;2024-01-30T13:53:31;16.00;99.90
44763;DHT22;30483;49.576;6.036;2024-01-30T13:55:57;16.00;99.90
44763;DHT22;30483;49.576;6.036;2024-01-30T13:58:22;16.00;99.90
44763;DHT22;30483;49.576;6.036;2024-01-30T14:00:48;16.00;99.90
44763;DHT22;30483;49.576;6.036;2024-01-30T14:03:14;15.90;99.90
44763;DHT22;30483;49.576;6.036;2024-01-30T14:05:40;15.90;99.90
44763;DHT22;30483;49.576;6.036;2024-01-30T14:08:06;15.90;99.90
44763;DHT22;30483;49.576;6.036;2024-01-30T14:10:32;15.80;99.90
44763;DHT22;30483;49.576;6.036;2024-01-30T14:12:58;15.70;99.90
44763;DHT22;30483;49.576;6.036;2024-01-30T14:15:24;15.60;99.90
44763;DHT22;30483;49.576;6.036;2024-01-30T14:17:49;15.50;99.90
44763;DHT22;30483;49.576;6.036;2024-01-30T14:20:15;15.50;99.90
44763;DHT22;30483;49.576;6.036;2024-01-30T14:22:44;15.40;99.90
44763;DHT22;30483;49.576;6.036;2024-01-30T14:25:09;15.40;99.90
44763;DHT22;30483;49.576;6.036;2024-01-30T14:27:36;15.30;99.90
44763;DHT22;30483;49.576;6.036;2024-01-30T14:30:02;15.30;99.90
44763;DHT22;30483;49.576;6.036;2024-01-30T14:32:28;15.20;99.90
44763;DHT22;30483;49.576;6.036;2024-01-30T14:34:54;15.20;99.90
44763;DHT22;30483;49.576;6.036;2024-01-30T14:37:20;15.20;99.90
44763;DHT22;30483;49.576;6.036;2024-01-30T14:39:47;15.20;99.90
44763;DHT22;30483;49.576;6.036;2024-01-30T14:42:13;15.10;99.90
44763;DHT22;30483;49.576;6.036;2024-01-30T14:44:39;15.10;99.90
44763;DHT22;30483;49.576;6.036;2024-01-30T14:47:05;15.10;99.90
44763;DHT22;30483;49.576;6.036;2024-01-30T14:49:31;15.10;99.90
44763;DHT22;30483;49.576;6.036;2024-01-30T14:51:57;15.10;99.90
44763;DHT22;30483;49.576;6.036;2024-01-30T14:54:24;15.10;99.90
44763;DHT22;30483;49.576;6.036;2024-01-30T14:56:50;15.10;99.90
44763;DHT22;30483;49.576;6.036;2024-01-30T14:59:15;15.10;99.90
44763;DHT22;30483;49.576;6.036;2024-01-30T15:01:41;15.10;99.90
44763;DHT22;30483;49.576;6.036;2024-01-30T15:04:07;15.10;99.90
44763;DHT22;30483;49.576;6.036;2024-01-30T15:06:33;15.00;99.90
44763;DHT22;30483;49.576;6.036;2024-01-30T15:08:58;15.00;99.90
44763;DHT22;30483;49.576;6.036;2024-01-30T15:11:24;15.00;99.90
44763;DHT22;30483;49.576;6.036;2024-01-30T15:13:50;15.00;99.90
44763;DHT22;30483;49.576;6.036;2024-01-30T15:16:15;15.00;99.90
44763;DHT22;30483;49.576;6.036;2024-01-30T15:18:41;15.00;99.90
44763;DHT22;30483;49.576;6.036;2024-01-30T15:21:06;15.00;99.90
44763;DHT22;30483;49.576;6.036;2024-01-30T15:23:32;15.00;99.90
44763;DHT22;30483;49.576;6.036;2024-01-30T15:25:58;15.00;99.90
44763;DHT22;30483;49.576;6.036;2024-01-30T15:28:34;15.00;99.90
44763;DHT22;30483;49.576;6.036;2024-01-30T15:31:02;15.00;99.90
44763;DHT22;30483;49.576;6.036;2024-01-30T15:33:27;15.00;99.90
44763;DHT22;30483;49.576;6.036;2024-01-30T15:35:53;14.90;99.90
44763;DHT22;30483;49.576;6.036;2024-01-30T15:38:19;14.90;99.90
44763;DHT22;30483;49.576;6.036;2024-01-30T15:40:46;15.00;99.90
44763;DHT22;30483;49.576;6.036;2024-01-30T15:43:12;14.90;99.90
44763;DHT22;30483;49.576;6.036;2024-01-30T15:45:38;15.00;99.90
44763;DHT22;30483;49.576;6.036;2024-01-30T15:48:04;15.00;99.90
44763;DHT22;30483;49.576;6.036;2024-01-30T15:50:29;14.90;99.90
44763;DHT22;30483;49.576;6.036;2024-01-30T15:52:55;15.00;99.90
44763;DHT22;30483;49.576;6.036;2024-01-30T15:55:21;15.00;99.90
44763;DHT22;30483;49.576;6.036;2024-01-30T15:57:46;15.00;99.90
44763;DHT22;30483;49.576;6.036;2024-01-30T16:00:12;15.00;99.90
44763;DHT22;30483;49.576;6.036;2024-01-30T16:02:38;15.00;99.90
44763;DHT22;30483;49.576;6.036;2024-01-30T16:05:04;15.00;99.90
44763;DHT22;30483;49.576;6.036;2024-01-30T16:07:30;15.00;99.90
44763;DHT22;30483;49.576;6.036;2024-01-30T16:09:58;15.00;99.90
44763;DHT22;30483;49.576;6.036;2024-01-30T16:12:23;14.90;99.90
44763;DHT22;30483;49.576;6.036;2024-01-30T16:14:49;15.00;99.90
44763;DHT22;30483;49.576;6.036;2024-01-30T16:17:15;15.00;99.90
44763;DHT22;30483;49.576;6.036;2024-01-30T16:19:41;15.10;99.90
44763;DHT22;30483;49.576;6.036;2024-01-30T16:22:06;15.10;99.90
44763;DHT22;30483;49.576;6.036;2024-01-30T16:24:32;15.30;99.90
44763;DHT22;30483;49.576;6.036;2024-01-30T16:26:57;15.40;99.90
44763;DHT22;30483;49.576;6.036;2024-01-30T16:29:23;15.50;99.90
44763;DHT22;30483;49.576;6.036;2024-01-30T16:31:49;15.60;99.90
44763;DHT22;30483;49.576;6.036;2024-01-30T16:34:14;15.70;99.90
44763;DHT22;30483;49.576;6.036;2024-01-30T16:36:40;15.80;99.90
44763;DHT22;30483;49.576;6.036;2024-01-30T16:39:05;15.90;99.90
44763;DHT22;30483;49.576;6.036;2024-01-30T16:41:31;16.00;99.90
44763;DHT22;30483;49.576;6.036;2024-01-30T16:43:57;16.10;99.90
44763;DHT22;30483;49.576;6.036;2024-01-30T16:46:23;16.20;99.90
44763;DHT22;30483;49.576;6.036;2024-01-30T16:48:48;16.30;99.90
44763;DHT22;30483;49.576;6.036;2024-01-30T16:51:16;16.40;99.90
44763;DHT22;30483;49.576;6.036;2024-01-30T16:53:42;16.50;99.90
44763;DHT22;30483;49.576;6.036;2024-01-30T16:56:09;16.50;99.90
44763;DHT22;30483;49.576;6.036;2024-01-30T16:58:35;16.50;99.90
44763;DHT22;30483;49.576;6.036;2024-01-30T17:01:00;16.60;99.90
44763;DHT22;30483;49.576;6.036;2024-01-30T17:03:26;16.60;99.90
44763;DHT22;30483;49.576;6.036;2024-01-30T17:05:52;16.70;99.90
44763;DHT22;30483;49.576;6.036;2024-01-30T17:08:21;16.70;99.90
44763;DHT22;30483;49.576;6.036;2024-01-30T17:10:47;16.80;99.90
44763;DHT22;30483;49.576;6.036;2024-01-30T17:13:12;16.80;99.90
44763;DHT22;30483;49.576;6.036;2024-01-30T17:15:38;16.90;99.90
44763;DHT22;30483;49.576;6.036;2024-01-30T17:18:04;16.90;99.90
44763;DHT22;30483;49.576;6.036;2024-01-30T17:20:30;16.90;99.90
44763;DHT22;30483;49.576;6.036;2024-01-30T17:22:55;16.90;99.90
44763;DHT22;30483;49.576;6.036;2024-01-30T17:25:21;16.90;99.90
44763;DHT22;30483;49.576;6.036;2024-01-30T17:27:46;16.90;99.90
44763;DHT22;30483;49.576;6.036;2024-01-30T17:30:12;16.90;99.90
44763;DHT22;30483;49.576;6.036;2024-01-30T17:32:39;16.90;99.90
44763;DHT22;30483;49.576;6.036;2024-01-30T17:35:05;16.90;99.90
44763;DHT22;30483;49.576;6.036;2024-01-30T17:37:30;16.90;99.90
44763;DHT22;30483;49.576;6.036;2024-01-30T17:39:56;16.90;99.90
44763;DHT22;30483;49.576;6.036;2024-01-30T17:42:23;16.90;99.90
44763;DHT22;30483;49.576;6.036;2024-01-30T17:44:49;16.90;99.90
44763;DHT22;30483;49.576;6.036;2024-01-30T17:47:15;16.90;99.90
44763;DHT22;30483;49.576;6.036;2024-01-30T17:49:41;16.90;99.90
44763;DHT22;30483;49.576;6.036;2024-01-30T17:52:07;16.80;99.90
44763;DHT22;30483;49.576;6.036;2024-01-30T17:54:33;16.90;99.90
44763;DHT22;30483;49.576;6.036;2024-01-30T17:56:59;16.80;99.90
44763;DHT22;30483;49.576;6.036;2024-01-30T17:59:25;16.80;99.90
44763;DHT22;30483;49.576;6.036;2024-01-30T18:01:50;16.80;99.90
44763;DHT22;30483;49.576;6.036;2024-01-30T18:04:17;16.80;99.90
44763;DHT22;30483;49.576;6.036;2024-01-30T18:06:53;16.80;99.90
44763;DHT22;30483;49.576;6.036;2024-01-30T18:09:20;16.70;99.90
44763;DHT22;30483;49.576;6.036;2024-01-30T18:11:46;16.70;99.90
44763;DHT22;30483;49.576;6.036;2024-01-30T18:14:12;16.70;99.90
44763;DHT22;30483;49.576;6.036;2024-01-30T18:16:38;16.70;99.90
44763;DHT22;30483;49.576;6.036;2024-01-30T18:19:04;16.70;99.90
44763;DHT22;30483;49.576;6.036;2024-01-30T18:21:30;16.70;99.90
44763;DHT22;30483;49.576;6.036;2024-01-30T18:23:55;16.70;99.90
44763;DHT22;30483;49.576;6.036;2024-01-30T18:26:21;16.70;99.90
44763;DHT22;30483;49.576;6.036;2024-01-30T18:28:48;16.70;99.90
44763;DHT22;30483;49.576;6.036;2024-01-30T18:31:15;16.70;99.90
44763;DHT22;30483;49.576;6.036;2024-01-30T18:33:40;16.70;99.90
44763;DHT22;30483;49.576;6.036;2024-01-30T18:36:07;16.70;99.90
44763;DHT22;30483;49.576;6.036;2024-01-30T18:38:33;16.60;99.90
44763;DHT22;30483;49.576;6.036;2024-01-30T18:40:58;16.60;99.90
44763;DHT22;30483;49.576;6.036;2024-01-30T18:43:24;16.60;99.90
44763;DHT22;30483;49.576;6.036;2024-01-30T18:45:53;16.60;99.90
44763;DHT22;30483;49.576;6.036;2024-01-30T18:48:22;16.60;99.90
44763;DHT22;30483;49.576;6.036;2024-01-30T18:50:48;16.60;99.90
44763;DHT22;30483;49.576;6.036;2024-01-30T18:53:14;16.60;99.90
44763;DHT22;30483;49.576;6.036;2024-01-30T18:55:40;16.60;99.90
44763;DHT22;30483;49.576;6.036;2024-01-30T18:58:05;16.60;99.90
44763;DHT22;30483;49.576;6.036;2024-01-30T19:00:34;16.60;99.90
44763;DHT22;30483;49.576;6.036;2024-01-30T19:03:01;16.60;99.90
44763;DHT22;30483;49.576;6.036;2024-01-30T19:05:27;16.50;99.90
44763;DHT22;30483;49.576;6.036;2024-01-30T19:07:53;16.50;99.90
44763;DHT22;30483;49.576;6.036;2024-01-30T19:10:19;16.50;99.90
44763;DHT22;30483;49.576;6.036;2024-01-30T19:12:44;16.50;99.90
44763;DHT22;30483;49.576;6.036;2024-01-30T19:15:10;16.50;99.90
44763;DHT22;30483;49.576;6.036;2024-01-30T19:17:39;16.50;99.90
44763;DHT22;30483;49.576;6.036;2024-01-30T19:20:06;16.50;99.90
44763;DHT22;30483;49.576;6.036;2024-01-30T19:22:32;16.50;99.90
44763;DHT22;30483;49.576;6.036;2024-01-30T19:24:58;16.50;99.90